Time;durP1;ratioP1;P1;durP2;ratioP2;P2;SDS_P1;SDS_P2;PMS_P1;PMS_P2;Temp;Humidity;BMP_temperature;BMP_pressure;BME280_temperature;BME280_humidity;BME280_pressure;Samples;Min_cycle;Max_cycle;Signal;HPM_P1;HPM_P2
2023/10/03 00:02:00;;;;;;;26.10;8.90;;;;;;;21.30;55.16;99350.71;67872;1276;1017440;-63
2023/10/03 00:05:07;;;;;;;24.60;8.70;;;;;;;21.35;55.11;99350.08;67867;1276;1016132;-64
2023/10/03 00:08:10;;;;;;;26.50;9.10;;;;;;;21.37;55.33;99350.29;67863;1276;1016474;-65
2023/10/03 00:11:13;;;;;;;23.90;8.20;;;;;;;21.49;55.20;99347.35;67889;1276;1018154;-65
2023/10/03 00:14:15;;;;;;;25.20;9.00;;;;;;;21.58;54.97;99343.99;67826;1276;1016324;-65
2023/10/03 00:17:19;;;;;;;28.90;9.20;;;;;;;21.58;54.89;99342.96;67903;1276;1016356;-65
2023/10/03 00:20:22;;;;;;;24.60;8.60;;;;;;;21.58;54.92;99340.89;67864;1276;1016428;-65
2023/10/03 00:23:25;;;;;;;24.30;8.50;;;;;;;21.54;54.89;99336.19;67876;1276;1016370;-65
2023/10/03 00:26:28;;;;;;;24.40;8.70;;;;;;;21.48;55.00;99330.86;67900;1276;1016111;-65
2023/10/03 00:29:33;;;;;;;23.90;8.90;;;;;;;21.43;55.10;99326.17;67874;1276;1016523;-66
2023/10/03 00:32:35;;;;;;;22.50;8.20;;;;;;;21.46;55.12;99327.90;67853;1276;1016347;-65
2023/10/03 00:35:37;;;;;;;25.10;8.80;;;;;;;21.62;54.82;99329.50;67885;1276;1016451;-64
2023/10/03 00:38:40;;;;;;;25.40;8.80;;;;;;;21.61;54.80;99328.32;67896;1276;1016558;-68
2023/10/03 00:41:43;;;;;;;24.60;8.40;;;;;;;21.63;54.65;99322.29;67891;1276;1017243;-65
2023/10/03 00:44:45;;;;;;;24.50;8.50;;;;;;;21.59;54.74;99321.15;67848;1276;1016870;-67
2023/10/03 00:47:49;;;;;;;25.10;8.70;;;;;;;21.58;54.77;99321.55;67879;1276;1016415;-66
2023/10/03 00:50:53;;;;;;;26.30;8.80;;;;;;;21.59;54.76;99315.58;67892;1276;1016914;-68
2023/10/03 00:53:55;;;;;;;23.40;8.80;;;;;;;21.63;54.58;99313.08;67852;1276;1016120;-67
2023/10/03 00:56:58;;;;;;;25.80;8.40;;;;;;;21.60;54.62;99308.73;67867;1276;1015719;-65
2023/10/03 01:00:00;;;;;;;23.40;8.20;;;;;;;21.60;54.50;99304.81;67881;1276;1016383;-68
2023/10/03 01:03:03;;;;;;;25.20;9.00;;;;;;;21.70;54.28;99304.52;67886;1276;1016174;-65
2023/10/03 01:06:08;;;;;;;25.40;8.90;;;;;;;21.70;54.29;99302.52;67917;1276;1016407;-64
2023/10/03 01:09:20;;;;;;;23.40;8.10;;;;;;;21.73;54.19;99301.02;67877;1274;1016474;-64
2023/10/03 01:12:22;;;;;;;25.40;8.60;;;;;;;21.68;54.13;99298.02;67906;1276;1016190;-64
2023/10/03 01:15:26;;;;;;;25.30;9.00;;;;;;;21.68;54.22;99299.55;67906;1276;1016290;-67
2023/10/03 01:18:31;;;;;;;24.00;8.10;;;;;;;21.79;54.06;99294.23;67895;1276;1016253;-65
2023/10/03 01:21:34;;;;;;;24.90;8.80;;;;;;;21.76;54.23;99295.38;67868;1276;1016473;-65
2023/10/03 01:24:38;;;;;;;24.00;8.30;;;;;;;21.69;54.31;99291.67;67891;1276;1016206;-65
2023/10/03 01:27:40;;;;;;;26.90;8.60;;;;;;;21.64;54.42;99295.11;67856;1276;1016570;-68
2023/10/03 01:30:43;;;;;;;25.00;9.30;;;;;;;21.61;54.57;99294.08;67896;1276;1016402;-65
2023/10/03 01:33:47;;;;;;;23.00;8.60;;;;;;;21.66;54.43;99296.00;67832;1276;1016460;-65
2023/10/03 01:36:49;;;;;;;26.50;9.30;;;;;;;21.68;54.35;99296.41;67834;1276;1018942;-65
2023/10/03 01:39:51;;;;;;;24.30;8.90;;;;;;;21.61;54.62;99295.96;67819;1276;1016493;-64
2023/10/03 01:42:54;;;;;;;24.80;9.20;;;;;;;21.58;54.66;99293.42;67843;1276;1016181;-64
2023/10/03 01:45:56;;;;;;;26.40;9.00;;;;;;;21.59;54.45;99292.83;67856;1276;1016882;-66
2023/10/03 01:48:59;;;;;;;;;;;;;;;21.57;54.37;99288.19;67906;1276;1016458;-66
2023/10/03 01:52:02;;;;;;;27.20;9.40;;;;;;;21.53;54.25;99287.30;67900;1276;1016224;-66
2023/10/03 01:55:05;;;;;;;24.40;9.60;;;;;;;21.40;54.59;99286.71;67871;1276;1016843;-66
2023/10/03 01:58:07;;;;;;;25.20;9.10;;;;;;;21.28;54.81;99285.70;67887;1276;1016371;-64
2023/10/03 02:01:09;;;;;;;22.40;8.60;;;;;;;21.49;54.01;99286.01;67868;1276;1015746;-64
2023/10/03 02:04:12;;;;;;;23.00;8.70;;;;;;;21.49;53.78;99281.66;67845;1276;1016439;-63
2023/10/03 02:07:16;;;;;;;;;;;;;;;21.27;54.05;99276.13;67892;1276;1017454;-64
2023/10/03 02:10:18;;;;;;;25.90;9.20;;;;;;;21.30;53.86;99280.67;67858;1276;1016329;-63
2023/10/03 02:13:21;;;;;;;26.00;9.30;;;;;;;21.37;53.87;99281.42;67865;1276;1018814;-63
2023/10/03 02:16:23;;;;;;;26.30;9.30;;;;;;;21.23;54.14;99282.09;67834;1276;1017989;-64
2023/10/03 02:19:26;;;;;;;25.50;9.30;;;;;;;21.15;54.16;99282.14;67861;1276;1016416;-64
2023/10/03 02:22:29;;;;;;;25.10;9.00;;;;;;;21.10;54.30;99277.09;67892;1276;1016332;-66
2023/10/03 02:25:35;;;;;;;22.70;8.70;;;;;;;21.02;54.12;99275.73;67881;1276;1016429;-66
2023/10/03 02:28:38;;;;;;;22.90;8.60;;;;;;;20.77;54.74;99270.02;67851;1276;1016455;-67
2023/10/03 02:31:40;;;;;;;25.40;9.30;;;;;;;20.76;54.59;99265.52;67879;1276;1016355;-65
2023/10/03 02:34:43;;;;;;;23.20;8.70;;;;;;;20.74;54.78;99266.17;67905;1276;1016212;-65
2023/10/03 02:37:47;;;;;;;24.50;9.10;;;;;;;20.71;54.76;99262.90;67870;1276;1016482;-68
2023/10/03 02:40:50;;;;;;;25.00;9.00;;;;;;;20.74;54.72;99256.42;67846;1276;1017008;-67
2023/10/03 02:43:53;;;;;;;23.60;9.10;;;;;;;20.62;54.70;99252.62;67891;1276;1016550;-69
2023/10/03 02:46:55;;;;;;;25.60;8.80;;;;;;;20.38;55.29;99253.27;67895;1276;1016188;-69
2023/10/03 02:49:58;;;;;;;27.90;9.20;;;;;;;20.35;55.36;99250.85;67865;1276;1016230;-67
2023/10/03 02:53:05;;;;;;;23.10;8.60;;;;;;;20.47;55.01;99246.42;67851;1275;1019887;-65
2023/10/03 02:56:08;;;;;;;25.10;9.10;;;;;;;20.48;55.13;99243.14;67874;1276;1016432;-65
2023/10/03 02:59:10;;;;;;;28.70;10.30;;;;;;;20.45;55.47;99245.47;67859;1276;1016754;-64
2023/10/03 03:02:14;;;;;;;23.40;8.70;;;;;;;20.43;55.60;99246.97;67850;1276;1016418;-64
2023/10/03 03:05:16;;;;;;;23.40;9.10;;;;;;;20.37;55.66;99238.22;67873;1275;1016246;-68
2023/10/03 03:08:28;;;;;;;26.10;9.20;;;;;;;20.35;55.62;99239.73;67887;1276;1018855;-65
2023/10/03 03:11:31;;;;;;;26.80;9.30;;;;;;;20.47;55.52;99235.60;67861;1276;1016138;-64
2023/10/03 03:14:33;;;;;;;25.20;9.60;;;;;;;20.44;55.56;99235.99;67892;1276;1016993;-66
2023/10/03 03:17:36;;;;;;;24.60;8.70;;;;;;;20.48;55.53;99233.48;67876;1276;1016421;-64
2023/10/03 03:20:42;;;;;;;25.80;9.30;;;;;;;20.50;55.40;99229.02;67849;1276;1016484;-66
2023/10/03 03:23:56;;;;;;;23.70;8.50;;;;;;;20.52;55.41;99230.09;67837;1276;1019054;-64
2023/10/03 03:26:58;;;;;;;27.70;8.90;;;;;;;20.62;55.25;99219.77;67871;1276;1017275;-67
2023/10/03 03:30:33;;;;;;;24.30;9.70;;;;;;;20.60;55.22;99211.91;67878;1276;1016545;-66
2023/10/03 03:33:33;;;;;;;23.70;8.80;;;;;;;20.43;55.64;99210.13;67832;1276;1016935;-64
2023/10/03 03:36:35;;;;;;;23.30;8.70;;;;;;;20.56;55.43;99208.34;67839;1276;1019945;-64
2023/10/03 03:39:52;;;;;;;27.80;8.80;;;;;;;20.57;55.35;99201.52;67904;1276;1016311;-64
2023/10/03 03:42:55;;;;;;;23.60;8.50;;;;;;;20.51;55.75;99197.20;67862;1276;1019501;-64
2023/10/03 03:45:57;;;;;;;24.70;8.90;;;;;;;20.51;55.63;99197.32;67842;1276;1016476;-63
2023/10/03 03:49:04;;;;;;;24.10;9.00;;;;;;;20.57;55.41;99193.52;67894;1276;1017522;-64
2023/10/03 03:52:11;;;;;;;23.90;9.10;;;;;;;20.55;55.37;99189.98;67881;1276;1016542;-65
2023/10/03 03:55:13;;;;;;;25.20;9.50;;;;;;;20.61;55.26;99193.66;67843;1276;1019312;-63
2023/10/03 03:58:18;;;;;;;26.40;8.80;;;;;;;20.60;55.35;99193.45;67835;1276;1016455;-65
2023/10/03 04:01:20;;;;;;;24.30;8.60;;;;;;;20.47;55.66;99194.01;67865;1276;1016251;-66
2023/10/03 04:04:23;;;;;;;25.00;9.10;;;;;;;20.45;55.63;99192.22;67875;1276;1016368;-63
2023/10/03 04:07:26;;;;;;;23.90;9.20;;;;;;;20.45;55.58;99192.36;67839;1276;1018802;-63
2023/10/03 04:10:28;;;;;;;24.10;9.00;;;;;;;20.34;55.84;99186.52;67849;1276;1018336;-67
2023/10/03 04:13:31;;;;;;;25.20;9.00;;;;;;;20.31;56.03;99183.11;67896;1276;1016844;-64
2023/10/03 04:16:38;;;;;;;;;;;;;;;20.36;55.90;99177.99;67878;1276;1016821;-65
2023/10/03 04:19:41;;;;;;;23.90;8.60;;;;;;;20.35;55.88;99175.60;67814;1276;1016372;-64
2023/10/03 04:22:43;;;;;;;24.00;8.70;;;;;;;20.34;55.86;99174.30;67872;1276;1016526;-64
2023/10/03 04:25:45;;;;;;;25.10;8.30;;;;;;;20.30;55.86;99172.22;67875;1276;1016399;-64
2023/10/03 04:28:48;;;;;;;23.00;8.40;;;;;;;20.32;55.93;99172.21;67871;1276;1018199;-64
2023/10/03 04:31:50;;;;;;;25.30;8.00;;;;;;;20.46;55.67;99174.69;67867;1276;1016389;-64
2023/10/03 04:34:54;;;;;;;27.30;9.40;;;;;;;20.61;55.16;99171.00;67865;1276;1016220;-65
2023/10/03 04:37:57;;;;;;;22.90;8.70;;;;;;;20.49;55.27;99170.48;67824;1276;1016386;-65
2023/10/03 04:41:00;;;;;;;24.60;8.30;;;;;;;20.46;55.41;99170.85;67910;1276;1018607;-69
2023/10/03 04:44:03;;;;;;;;;;;;;;;20.51;55.20;99165.17;67864;1276;1016575;-64
2023/10/03 04:47:09;;;;;;;23.10;8.70;;;;;;;20.49;55.16;99165.59;67874;1276;1016530;-63
2023/10/03 04:50:12;;;;;;;23.20;8.90;;;;;;;20.40;55.61;99163.39;67897;1276;1020307;-64
2023/10/03 04:53:15;;;;;;;26.80;9.20;;;;;;;20.50;55.29;99155.52;67872;1276;1016023;-64
2023/10/03 04:56:18;;;;;;;23.90;8.40;;;;;;;20.46;55.18;99152.20;67865;1276;1016565;-65
2023/10/03 04:59:20;;;;;;;22.50;7.90;;;;;;;20.51;54.99;99154.75;67855;1276;1016181;-65
2023/10/03 05:02:23;;;;;;;;;;;;;;;20.57;55.04;99150.19;67866;1276;1016126;-67
2023/10/03 05:05:25;;;;;;;22.80;8.40;;;;;;;20.65;54.95;99151.45;67898;1276;1016770;-63
2023/10/03 05:08:28;;;;;;;22.20;8.10;;;;;;;20.70;54.84;99154.70;67887;1276;1016465;-64
2023/10/03 05:11:31;;;;;;;21.60;7.70;;;;;;;20.79;54.64;99152.95;67888;1276;1016931;-64
2023/10/03 05:14:34;;;;;;;23.10;7.70;;;;;;;20.74;54.65;99153.70;67881;1276;1016281;-64
2023/10/03 05:17:37;;;;;;;25.50;8.30;;;;;;;20.85;54.71;99158.00;67857;1276;1016425;-64
2023/10/03 05:20:40;;;;;;;23.40;7.90;;;;;;;20.97;54.62;99154.69;67859;1276;1016501;-64
2023/10/03 05:23:43;;;;;;;21.80;7.40;;;;;;;21.05;54.42;99157.10;67878;1276;1016451;-64
2023/10/03 05:26:45;;;;;;;23.30;8.30;;;;;;;21.26;53.88;99159.61;67864;1276;1016501;-64
2023/10/03 05:29:47;;;;;;;21.80;7.60;;;;;;;21.11;54.08;99159.52;67866;1276;1016346;-63
2023/10/03 05:32:50;;;;;;;21.90;8.10;;;;;;;21.07;54.44;99159.35;67859;1276;1016956;-65
2023/10/03 05:35:52;;;;;;;22.50;7.30;;;;;;;21.10;54.41;99160.86;67886;1276;1016346;-63
2023/10/03 05:38:55;;;;;;;23.80;7.50;;;;;;;21.24;54.28;99160.36;67908;1276;1016393;-63
2023/10/03 05:41:57;;;;;;;21.50;7.60;;;;;;;21.37;54.07;99158.20;67850;1276;1016363;-64
2023/10/03 05:45:00;;;;;;;19.60;6.90;;;;;;;21.49;53.98;99153.62;67804;1276;1016259;-64
2023/10/03 05:48:03;;;;;;;21.10;7.80;;;;;;;21.75;53.31;99149.58;67856;1276;1016353;-66
2023/10/03 05:51:06;;;;;;;22.70;7.30;;;;;;;21.96;53.08;99149.00;67815;1276;1016340;-64
2023/10/03 05:54:08;;;;;;;19.80;6.80;;;;;;;22.09;52.92;99150.70;67890;1276;1016453;-63
2023/10/03 05:57:11;;;;;;;20.40;6.70;;;;;;;22.10;53.07;99147.56;67889;1276;1017279;-64
2023/10/03 06:00:16;;;;;;;21.20;7.50;;;;;;;22.00;53.58;99145.05;67867;1276;1016381;-64
2023/10/03 06:03:19;;;;;;;21.30;7.20;;;;;;;22.15;53.54;99146.11;67899;1276;1016436;-66
2023/10/03 06:06:22;;;;;;;21.10;7.00;;;;;;;22.43;53.03;99145.55;67878;1276;1016278;-65
2023/10/03 06:09:26;;;;;;;21.80;7.30;;;;;;;22.51;53.23;99144.82;67905;1276;1016327;-65
2023/10/03 06:12:29;;;;;;;23.10;7.40;;;;;;;22.64;53.01;99143.68;67917;1276;1016437;-63
2023/10/03 06:15:35;;;;;;;22.40;7.30;;;;;;;22.87;52.69;99141.64;67834;1276;1016066;-64
2023/10/03 06:18:39;;;;;;;21.70;7.20;;;;;;;23.24;52.11;99134.67;67845;1276;1016245;-64
2023/10/03 06:21:42;;;;;;;22.40;7.20;;;;;;;23.45;51.91;99130.61;67843;1276;1016456;-64
2023/10/03 06:24:45;;;;;;;22.40;7.10;;;;;;;23.72;51.55;99131.13;67870;1276;1016436;-66
2023/10/03 06:27:47;;;;;;;22.20;6.90;;;;;;;23.88;51.44;99126.21;67900;1276;1016357;-64
2023/10/03 06:30:50;;;;;;;22.30;6.90;;;;;;;23.86;51.77;99126.41;67917;1276;1018464;-63
2023/10/03 06:33:52;;;;;;;22.00;6.30;;;;;;;23.77;51.98;99122.17;67884;1276;1016527;-64
2023/10/03 06:36:54;;;;;;;23.40;6.70;;;;;;;23.91;52.02;99121.27;67864;1276;1016343;-65
2023/10/03 06:39:56;;;;;;;22.50;7.00;;;;;;;24.11;51.91;99121.83;67849;1276;1016330;-65
2023/10/03 06:42:59;;;;;;;22.70;7.60;;;;;;;24.38;51.46;99123.95;67876;1276;1016449;-64
2023/10/03 06:46:03;;;;;;;;;;;;;;;24.60;51.13;99122.02;67897;1276;1015641;-64
2023/10/03 06:49:06;;;;;;;22.10;7.30;;;;;;;24.75;51.48;99124.46;67889;1276;1018776;-67
2023/10/03 06:52:08;;;;;;;22.40;6.80;;;;;;;24.96;51.27;99121.75;67866;1276;1016322;-65
2023/10/03 06:55:15;;;;;;;22.80;6.80;;;;;;;25.10;51.09;99119.81;67877;1276;1016299;-65
2023/10/03 06:58:18;;;;;;;19.10;6.30;;;;;;;25.16;50.85;99123.30;67903;1276;1016792;-63
2023/10/03 07:01:20;;;;;;;20.90;6.10;;;;;;;25.37;50.70;99120.27;67899;1276;1017133;-64
2023/10/03 07:04:22;;;;;;;20.90;6.70;;;;;;;25.49;50.34;99124.89;67887;1276;1018106;-64
2023/10/03 07:07:25;;;;;;;20.60;6.30;;;;;;;25.55;49.96;99117.73;67860;1276;1016918;-65
2023/10/03 07:10:27;;;;;;;;;;;;;;;25.77;50.00;99117.37;67874;1276;1016457;-64
2023/10/03 07:13:29;;;;;;;23.50;6.60;;;;;;;25.77;49.45;99118.90;67872;1253;1016312;-64
2023/10/03 07:16:32;;;;;;;;;;;;;;;25.80;49.52;99113.90;67914;1276;1016343;-66
2023/10/03 07:19:34;;;;;;;24.30;7.20;;;;;;;26.00;49.55;99110.63;67911;1253;1016460;-64
2023/10/03 07:22:37;;;;;;;22.70;6.90;;;;;;;26.26;49.35;99105.01;67862;1276;1016398;-64
2023/10/03 07:25:39;;;;;;;22.50;6.80;;;;;;;26.41;48.83;99105.35;67859;1276;1016761;-64
2023/10/03 07:28:41;;;;;;;20.40;6.00;;;;;;;26.38;48.72;99103.34;67863;1276;1016476;-64
2023/10/03 07:31:44;;;;;;;;;;;;;;;26.48;48.73;99098.92;67917;1276;1016479;-68
2023/10/03 07:34:46;;;;;;;19.80;6.20;;;;;;;26.69;48.66;99096.45;67899;1276;1016213;-63
2023/10/03 07:37:49;;;;;;;;;;;;;;;26.87;48.26;99096.73;67917;1276;1016407;-64
2023/10/03 07:40:52;;;;;;;23.10;7.00;;;;;;;26.95;47.40;99093.67;67891;1276;1016473;-64
2023/10/03 07:43:54;;;;;;;21.70;7.30;;;;;;;27.09;47.83;99089.40;67923;1276;1016444;-64
2023/10/03 07:46:57;;;;;;;;;;;;;;;27.45;47.51;99089.30;67913;1276;1019908;-65
2023/10/03 07:49:59;;;;;;;22.50;6.00;;;;;;;27.60;46.82;99084.96;67879;1276;1016529;-64
2023/10/03 07:53:03;;;;;;;21.20;6.50;;;;;;;27.89;46.82;99083.47;67891;1253;1016469;-64
2023/10/03 07:56:08;;;;;;;21.40;5.50;;;;;;;28.01;46.40;99083.21;67870;1276;1016081;-64
2023/10/03 07:59:10;;;;;;;23.60;6.50;;;;;;;28.14;46.09;99082.48;67910;1276;1016476;-64
2023/10/03 08:02:13;;;;;;;21.60;5.90;;;;;;;28.39;46.41;99077.92;67892;1276;1016293;-64
2023/10/03 08:05:15;;;;;;;21.20;5.90;;;;;;;28.52;45.28;99072.92;67863;1276;1016466;-65
2023/10/03 08:08:20;;;;;;;23.20;6.20;;;;;;;28.58;45.44;99072.16;67868;1276;1016340;-64
2023/10/03 08:11:28;;;;;;;22.30;5.80;;;;;;;28.54;45.10;99067.66;67908;1276;1016382;-64
2023/10/03 08:14:33;;;;;;;20.10;5.90;;;;;;;28.71;44.63;99067.89;67900;1276;1016843;-64
2023/10/03 08:17:36;;;;;;;19.70;6.00;;;;;;;28.91;44.29;99061.68;67879;1276;1016392;-65
2023/10/03 08:20:38;;;;;;;22.10;6.00;;;;;;;28.99;44.02;99058.94;67922;1276;1016478;-65
2023/10/03 08:23:40;;;;;;;21.20;6.10;;;;;;;29.21;44.19;99063.50;67911;1276;1019104;-65
2023/10/03 08:26:46;;;;;;;22.10;6.20;;;;;;;29.41;44.06;99062.77;67926;1276;1016854;-65
2023/10/03 08:29:51;;;;;;;20.40;5.90;;;;;;;29.61;43.64;99057.48;67916;1276;1016853;-65
2023/10/03 08:32:53;;;;;;;20.30;5.60;;;;;;;29.80;43.52;99055.19;67905;1276;1016144;-67
2023/10/03 08:35:56;;;;;;;21.80;6.30;;;;;;;29.92;43.02;99049.50;67838;1276;1016470;-68
2023/10/03 08:39:12;;;;;;;22.10;6.30;;;;;;;30.13;42.87;99048.12;67882;1276;1016640;-65
2023/10/03 08:42:15;;;;;;;21.20;6.60;;;;;;;30.11;42.13;99045.89;67896;1276;1016155;-65
2023/10/03 08:45:22;;;;;;;23.40;6.20;;;;;;;30.21;42.90;99042.71;67915;1276;1016494;-65
2023/10/03 08:48:25;;;;;;;23.10;5.90;;;;;;;30.44;42.65;99038.56;67866;1276;1016213;-65
2023/10/03 08:51:28;;;;;;;19.90;5.80;;;;;;;30.47;41.85;99037.14;67866;1276;1016135;-64
2023/10/03 08:54:36;;;;;;;19.80;5.50;;;;;;;30.48;41.11;99033.52;67876;1276;1016254;-64
2023/10/03 08:57:40;;;;;;;21.90;5.80;;;;;;;30.59;41.22;99033.73;67872;1276;1016481;-64
2023/10/03 09:00:42;;;;;;;19.00;5.30;;;;;;;30.66;41.27;99030.59;67851;1276;1015740;-64
2023/10/03 09:03:47;;;;;;;22.00;5.70;;;;;;;30.86;40.59;99021.45;67875;1276;1016447;-64
2023/10/03 09:06:50;;;;;;;22.50;6.90;;;;;;;31.04;40.79;99022.84;67900;1276;1016768;-65
2023/10/03 09:09:53;;;;;;;22.50;6.80;;;;;;;31.23;40.48;99016.02;67773;1276;1168863;-64
2023/10/03 09:13:03;;;;;;;20.70;6.00;;;;;;;31.47;40.49;99012.48;67922;1276;1019393;-64
2023/10/03 09:16:08;;;;;;;19.60;5.70;;;;;;;31.74;40.82;99005.15;67921;1276;1018535;-65
2023/10/03 09:19:10;;;;;;;21.10;6.10;;;;;;;31.84;39.67;99002.89;67880;1276;1016390;-64
2023/10/03 09:22:15;;;;;;;21.70;6.00;;;;;;;31.83;39.29;98999.33;67875;1276;1016466;-64
2023/10/03 09:25:21;;;;;;;21.80;5.40;;;;;;;31.87;39.50;98995.76;67921;1276;1016439;-65
2023/10/03 09:28:35;;;;;;;20.20;6.00;;;;;;;31.95;38.90;98995.06;67956;1276;1016210;-65
2023/10/03 09:31:37;;;;;;;22.10;5.90;;;;;;;32.13;38.95;98993.18;67914;1276;1016376;-66
2023/10/03 09:34:40;;;;;;;23.60;6.00;;;;;;;32.29;38.94;98988.66;67926;1276;1017250;-65
2023/10/03 09:37:48;;;;;;;19.40;5.60;;;;;;;32.38;38.74;98986.95;67884;1276;1016689;-65
2023/10/03 09:40:50;;;;;;;19.30;5.60;;;;;;;32.39;37.59;98985.77;67900;1276;1015946;-65
2023/10/03 09:43:54;;;;;;;23.60;6.00;;;;;;;32.38;37.68;98986.82;67897;1276;1016358;-66
2023/10/03 09:47:00;;;;;;;22.50;6.00;;;;;;;32.42;37.71;98984.05;67927;1276;1016182;-66
2023/10/03 09:50:06;;;;;;;21.20;5.70;;;;;;;32.63;37.59;98983.13;67923;1276;1016445;-64
2023/10/03 09:53:15;;;;;;;20.20;6.00;;;;;;;32.83;37.14;98983.02;67904;1276;1019288;-64
2023/10/03 09:56:19;;;;;;;19.50;5.40;;;;;;;32.93;36.57;98980.01;67878;1276;1016478;-66
2023/10/03 09:59:23;;;;;;;20.40;5.70;;;;;;;33.08;37.00;98980.55;58083;1276;2016072;-67
2023/10/03 10:02:31;;;;;;;20.50;5.60;;;;;;;33.30;37.07;98980.62;50523;1276;2015999;-67
2023/10/03 10:05:33;;;;;;;18.10;5.00;;;;;;;33.54;36.45;98979.73;51297;1276;2015938;-65
2023/10/03 10:08:37;;;;;;;22.30;6.50;;;;;;;33.78;35.97;98972.56;51436;1276;2015905;-65
2023/10/03 10:11:42;;;;;;;22.80;6.20;;;;;;;33.71;35.83;98967.34;51273;1276;2015628;-65
2023/10/03 10:14:44;;;;;;;20.50;5.50;;;;;;;33.64;36.04;98959.54;50548;1276;2015431;-63
2023/10/03 10:17:49;;;;;;;20.50;5.60;;;;;;;33.79;35.81;98957.73;49908;1276;2015494;-65
2023/10/03 10:20:51;;;;;;;21.60;6.20;;;;;;;34.05;35.77;98948.27;50547;1276;2016248;-65
2023/10/03 10:23:54;;;;;;;21.80;5.70;;;;;;;34.21;34.85;98946.46;50535;1276;2015733;-65
2023/10/03 10:26:59;;;;;;;20.00;5.80;;;;;;;34.29;34.64;98939.39;52812;1276;2015758;-66
2023/10/03 10:30:02;;;;;;;21.10;4.80;;;;;;;34.35;34.23;98941.36;51276;1276;2015935;-65
2023/10/03 10:33:06;;;;;;;17.90;5.30;;;;;;;34.41;33.98;98933.17;52203;1276;2016026;-65
2023/10/03 10:36:10;;;;;;;20.30;5.30;;;;;;;34.34;33.93;98929.36;49026;1276;2016478;-65
2023/10/03 10:39:13;;;;;;;20.90;6.00;;;;;;;34.41;33.66;98925.61;49923;1276;2015599;-65
2023/10/03 10:42:16;;;;;;;20.40;5.30;;;;;;;34.43;33.56;98921.67;49145;1276;2016527;-65
2023/10/03 10:45:20;;;;;;;20.00;5.40;;;;;;;34.67;33.76;98917.17;51423;1276;2015890;-66
2023/10/03 10:48:24;;;;;;;18.90;5.60;;;;;;;34.72;33.47;98910.55;51430;1276;2015645;-64
2023/10/03 10:51:26;;;;;;;19.40;5.80;;;;;;;34.88;33.32;98902.16;50670;1276;2017355;-64
2023/10/03 10:54:29;;;;;;;19.90;5.50;;;;;;;34.81;32.82;98898.58;52175;1276;2016402;-65
2023/10/03 10:57:31;;;;;;;20.00;5.70;;;;;;;34.77;32.97;98900.69;49757;1276;2015930;-65
2023/10/03 11:00:34;;;;;;;20.80;5.80;;;;;;;34.71;33.05;98904.73;49935;1276;2018073;-65
2023/10/03 11:03:37;;;;;;;21.40;5.50;;;;;;;34.81;33.16;98899.27;51283;1276;2016398;-65
2023/10/03 11:06:39;;;;;;;26.00;6.10;;;;;;;34.90;33.00;98891.95;50639;1276;2015911;-65
2023/10/03 11:09:43;;;;;;;18.50;5.50;;;;;;;35.03;32.82;98885.73;52051;1276;2016266;-66
2023/10/03 11:12:45;;;;;;;20.40;5.60;;;;;;;35.15;33.40;98883.89;67919;1276;1016414;-65
2023/10/03 11:15:48;;;;;;;18.10;5.20;;;;;;;35.33;33.27;98884.83;67908;1276;1016143;-65
2023/10/03 11:18:51;;;;;;;19.40;5.50;;;;;;;35.37;32.51;98877.45;67892;1276;1016075;-65
2023/10/03 11:21:54;;;;;;;21.00;6.00;;;;;;;35.39;32.92;98877.94;67933;1276;1016652;-65
2023/10/03 11:24:58;;;;;;;19.50;6.00;;;;;;;35.47;32.59;98871.75;67900;1276;1016625;-65
2023/10/03 11:28:01;;;;;;;20.00;5.70;;;;;;;35.45;32.48;98869.22;67881;1276;1016549;-64
2023/10/03 11:31:03;;;;;;;22.10;6.00;;;;;;;35.50;32.56;98864.79;67942;1276;1016348;-64
2023/10/03 11:34:06;;;;;;;21.30;6.20;;;;;;;35.63;32.10;98859.73;67896;1276;1015902;-65
2023/10/03 11:37:08;;;;;;;20.80;5.50;;;;;;;35.69;32.33;98844.27;67911;1276;1016104;-65
2023/10/03 11:40:13;;;;;;;22.80;6.10;;;;;;;35.82;31.91;98844.88;67876;1276;1016197;-65
2023/10/03 11:43:15;;;;;;;18.80;5.50;;;;;;;35.62;31.85;98836.49;67872;1276;1016615;-65
2023/10/03 11:46:18;;;;;;;19.20;5.70;;;;;;;35.50;31.92;98833.44;67930;1276;1016481;-65
2023/10/03 11:49:20;;;;;;;21.00;5.60;;;;;;;35.61;32.27;98834.04;67902;1276;1016434;-65
2023/10/03 11:52:23;;;;;;;20.30;5.30;;;;;;;35.71;31.75;98830.69;67897;1276;1016677;-65
2023/10/03 11:55:25;;;;;;;21.60;5.30;;;;;;;35.90;32.16;98832.35;67920;1276;1016403;-64
2023/10/03 11:58:28;;;;;;;20.50;5.30;;;;;;;35.99;31.20;98824.40;67931;1276;1016491;-65
2023/10/03 12:01:30;;;;;;;23.90;5.60;;;;;;;36.05;31.67;98824.24;67922;1276;1016537;-66
2023/10/03 12:04:32;;;;;;;20.10;5.70;;;;;;;36.23;31.57;98822.91;67892;1276;1016481;-65
2023/10/03 12:07:35;;;;;;;20.80;5.90;;;;;;;35.89;31.29;98811.61;67870;1276;1018847;-65
2023/10/03 12:10:37;;;;;;;20.20;5.10;;;;;;;36.01;31.61;98807.68;67900;1276;1016484;-66
2023/10/03 12:13:40;;;;;;;17.80;5.10;;;;;;;36.17;31.25;98805.72;67899;1276;1016503;-65
2023/10/03 12:16:45;;;;;;;20.10;5.50;;;;;;;36.08;30.67;98794.73;67886;1253;1016432;-65
2023/10/03 12:19:48;;;;;;;20.60;5.70;;;;;;;35.99;30.73;98792.34;67877;1276;1016511;-65
2023/10/03 12:22:50;;;;;;;19.50;5.90;;;;;;;36.04;30.86;98790.35;67914;1276;1016691;-66
2023/10/03 12:25:52;;;;;;;24.00;6.80;;;;;;;35.92;29.79;98792.22;67931;1276;1016379;-66
2023/10/03 12:28:56;;;;;;;22.70;6.30;;;;;;;35.76;29.66;98793.77;67921;1276;1018672;-64
2023/10/03 12:31:58;;;;;;;21.40;6.70;;;;;;;35.64;29.44;98791.64;67915;1276;1016128;-66
2023/10/03 12:35:00;;;;;;;27.10;7.20;;;;;;;35.44;29.60;98799.63;67912;1276;1016439;-64
2023/10/03 12:38:03;;;;;;;23.60;6.70;;;;;;;35.48;29.59;98794.75;67924;1276;1016298;-65
2023/10/03 12:41:06;;;;;;;21.70;6.80;;;;;;;35.45;29.35;98787.70;67885;1276;1018636;-65
2023/10/03 12:44:08;;;;;;;25.50;7.50;;;;;;;35.43;29.38;98786.73;67890;1276;1016487;-65
2023/10/03 12:47:10;;;;;;;23.30;7.70;;;;;;;35.41;29.01;98775.38;67887;1276;1017293;-64
2023/10/03 12:50:13;;;;;;;23.20;7.00;;;;;;;35.29;29.39;98766.30;67932;1276;1016906;-64
2023/10/03 12:53:15;;;;;;;24.80;7.10;;;;;;;35.17;29.52;98763.63;67890;1276;1016475;-65
2023/10/03 12:56:18;;;;;;;23.30;7.30;;;;;;;35.14;29.60;98761.02;67835;1276;1016365;-64
2023/10/03 12:59:20;;;;;;;23.60;7.20;;;;;;;35.29;29.30;98752.63;67858;1276;1017332;-64
2023/10/03 13:02:22;;;;;;;22.40;7.00;;;;;;;35.27;29.32;98749.02;67923;1276;1016549;-64
2023/10/03 13:05:25;;;;;;;23.50;7.90;;;;;;;35.21;29.06;98744.95;67910;1276;1017046;-64
2023/10/03 13:08:27;;;;;;;28.40;9.30;;;;;;;35.21;29.35;98745.82;67914;1276;1016287;-65
2023/10/03 13:11:29;;;;;;;24.20;8.30;;;;;;;35.04;29.09;98733.00;67873;1276;1018011;-64
2023/10/03 13:14:32;;;;;;;24.20;8.40;;;;;;;34.97;29.13;98732.05;67867;1276;1016910;-65
2023/10/03 13:17:36;;;;;;;24.00;8.10;;;;;;;35.18;29.54;98734.79;67901;1276;1016291;-64
2023/10/03 13:20:38;;;;;;;24.70;8.10;;;;;;;35.38;28.98;98731.73;67868;1276;1016566;-65
2023/10/03 13:23:41;;;;;;;25.90;8.00;;;;;;;35.36;28.74;98726.20;67912;1276;1016661;-65
2023/10/03 13:26:44;;;;;;;27.40;7.90;;;;;;;35.32;28.61;98724.27;67883;1276;1016581;-65
2023/10/03 13:29:46;;;;;;;31.30;9.20;;;;;;;35.37;28.48;98720.10;67864;1276;1017918;-65
2023/10/03 13:32:50;;;;;;;28.90;9.50;;;;;;;35.47;28.66;98719.77;67910;1276;1017144;-65
2023/10/03 13:35:53;;;;;;;24.50;8.50;;;;;;;35.34;28.55;98716.54;67914;1276;1016433;-65
2023/10/03 13:38:55;;;;;;;27.90;9.00;;;;;;;35.18;28.81;98721.81;67904;1276;1016494;-65
2023/10/03 13:41:57;;;;;;;25.20;8.60;;;;;;;35.32;28.98;98726.10;67897;1276;1016323;-65
2023/10/03 13:45:00;;;;;;;26.60;9.10;;;;;;;35.43;28.56;98719.57;67870;1276;1016285;-66
2023/10/03 13:48:02;;;;;;;25.40;8.90;;;;;;;35.26;28.68;98717.43;67875;1276;1016449;-65
2023/10/03 13:51:05;;;;;;;24.10;8.80;;;;;;;34.93;28.57;98719.54;67914;1276;1016409;-64
2023/10/03 13:54:07;;;;;;;26.50;8.70;;;;;;;34.82;28.97;98715.83;67902;1276;1016395;-65
2023/10/03 13:57:11;;;;;;;27.30;9.40;;;;;;;34.88;29.20;98711.75;67894;1276;1020033;-65